Aviation Digital Data Service (ADDS)

Output produced by METARs form (0956 UTC 19 January 2019)
found at http://www.aviationweather.gov/metar/data/
 
KAST 190855Z AUTO 21018G33KT 8SM SCT019 BKN041 OVC055 13/11 A2991 RMK AO2 PK WND 20033/0852 RAB0759E36 CIG 021 RWY 08 SLP129 P0001 60008 T01280111 51040
KAST 190838Z 1909/2006 21017G27KT P6SM -SHRA SCT015 BKN020 OVC050 
     FM191300 23010KT P6SM VCSH SCT020 BKN035 BKN060 
     FM191800 24008KT P6SM SCT030 BKN070
       
KUAO 190953Z AUTO 26010KT 2 1/2SM RA BR OVC005 12/11 A3001 RMK AO2 SLP160 P0011 T01170111
KUAO 190909Z 1909/2006 20010KT 3SM RA BR BKN008 OVC015 
     TEMPO 1909/1912 2SM BR BKN004 OVC008 
     FM191200 20008KT 4SM -RA BR SCT008 BKN015 OVC035 
     FM191600 22008KT P6SM -SHRA SCT012 OVC035 
     FM191900 23007KT P6SM VCSH SCT020 BKN035 OVC060
       
KBKE 190953Z AUTO 08015KT 2 1/2SM -SN BR OVC016 01/00 A3020 RMK AO2 SLP243 P0001 T00110000
KBKE 190520Z 1906/2006 09014KT 2SM -SN BR BKN010 OVC020 
     FM191500 11011KT 5SM -RA BR SCT010 OVC020 
     FM191900 12006KT P6SM VCSH BKN020 OVC035
       
KBDN 190955Z AUTO 21016KT 10SM CLR 07/04 A3005 RMK AO2 P0002
KBDN 190537Z 1906/2006 19008KT 6SM -RA BR OVC035 
     FM191900 31007KT P6SM -RA OVC035
       
KBNO 190953Z AUTO 01004KT 9SM UP FEW014 OVC036 00/M01 A3021 RMK AO2 UPB00SNE00 SLP246 P0007 T00001006
KBNO 190520Z 1906/2006 06006KT 5SM -SN BR OVC006 
     FM190800 VRB04KT 5SM -SNRA BR OVC006 
     FM191300 VRB04KT 2SM -RA BR OVC004 
     FM191800 VRB05KT 4SM -RA BR OVC010
       
KCVO 190856Z AUTO 16009KT 9SM -RA SCT007 OVC017 11/11 A3000 RMK AO2 SLP161 P0001 60003 T01110106 51027
KEUG 190954Z AUTO 18011KT 9SM OVC024 12/11 A3004 RMK AO2 SLP172 P0001 T01170106 $
KEUG 190521Z 1906/2006 18016KT 6SM RA BR SCT015 OVC035 
     FM191100 20015KT 4SM -RA BR SCT007 BKN015 OVC030 
     FM191900 25007KT P6SM -SHRA SCT012 BKN025 OVC040
       
K4S1 190935Z AUTO 20024G35KT 3SM -RA OVC013 12/12 A3011 RMK AO1 P0013
K3S8 190935Z AUTO 31004KT 6SM -RA OVC003 07/07 A3015 RMK AO2
KHRI 190953Z AUTO VRB03KT 8SM OVC050 06/04 A3002 RMK AO2 SLP166 T00560044
K4S2 190935Z AUTO 20004KT 4SM DZ OVC015 02/02 A3006 RMK AO2 P0001
KGCD 190935Z AUTO 18016G21KT 10SM RA OVC031 05/02 A3016 RMK AO2 P0003 T00470022
KLMT 190953Z AUTO 18003KT 10SM -RA OVC025 01/01 A3025 RMK AO2 SLP256 P0002 T00110011
KLMT 190850Z 1909/2006 16008KT P6SM BKN030 OVC040 
     FM191000 18010KT P6SM -RA OVC025 
     FM192200 18010KT 4SM -RA BR SCT007 OVC015 
     FM200300 18010KT P6SM -SHRA BKN015 OVC025
       
KLGD 190929Z AUTO 17010KT 8SM UP BKN015 OVC020 02/00 A3017 RMK AO2 P0007 FZRANO
KLKV 190953Z AUTO 18008KT 10SM OVC015 01/01 A3029 RMK AO2 SLP286 P0001 T00110011 FZRANO
KS33 190955Z AUTO 18012G16KT 10SM BKN050 OVC085 07/05 A3003 RMK AO2
KMMV 190953Z AUTO 20009KT 9SM -RA FEW017 BKN038 OVC048 11/11 A2998 RMK AO2 SLP151 P0001 T01110106
KMFR 190953Z AUTO 35007KT 10SM FEW070 SCT085 OVC120 07/06 A3014 RMK AO2 RAE53 SLP212 P0002 T00670056
KMFR 190849Z 1909/2006 07005KT 6SM RA BR BKN050 OVC070 
     FM191800 03004KT 5SM RA BR BKN025 OVC050
       
KONP 190935Z AUTO 20016G23KT 3SM BR OVC002 12/12 A3000 RMK AO2 P0002
KONP 190840Z 1909/2006 20022G30KT 2SM -RA BR OVC004 
     FM191200 22012KT P6SM -SHRA SCT008 BKN015 OVC040 
     FM191800 24007KT P6SM VCSH SCT020 BKN035 OVC060
       
KOTH 190916Z AUTO 20019G27KT 4SM -RA BR BKN013 OVC029 14/13 A3006 RMK AO2 PK WND 21027/0916 P0000
KOTH 190543Z 1906/2006 19020G30KT 6SM RA BR BKN015 OVC020 
     FM191000 22012G20KT P6SM -RA OVC025 
     FM191200 23006KT P6SM -SHRA OVC009 
     FM191600 17005KT P6SM VCSH OVC015 
     FM200300 12005KT P6SM -RA OVC025
       
KONO 190953Z AUTO 14008KT 7SM -RA BKN012 OVC016 04/02 A3031 RMK AO2 SLP276 P0010 T00390017
KPDT 190953Z AUTO 17008KT 10SM OVC047 09/05 A3000 RMK AO2 RAE27 SLP156 P0000 T00890050
KPDT 190537Z 1906/2006 15009KT 6SM -RA BR OVC040 
     FM191700 24010KT P6SM OVC050
       
KPDX 190953Z 11011KT 10SM BKN008 BKN018 OVC055 07/07 A3000 RMK AO2 SLP158 T00720067
KPDX 190834Z 1909/2006 12015KT 3SM RA BR BKN009 OVC012 
     TEMPO 1909/1912 BKN004 OVC009 
     FM191200 19014G22KT P6SM -RA SCT015 OVC035 
     FM191800 22006KT P6SM VCSH SCT020 BKN035 OVC060
       
KHIO 190953Z AUTO 14005KT 10SM BKN035 OVC045 11/10 A2997 RMK AO2 SLP150 T01060100
KHIO 190841Z 1909/2006 18006KT 4SM -RA BR SCT004 BKN007 OVC015 
     TEMPO 1909/1912 BKN004 OVC015 
     FM191200 20012KT 5SM -SHRA BR SCT008 BKN018 OVC035 
     FM191800 24006KT P6SM VCSH SCT020 BKN035 BKN060
       
KTTD 190953Z AUTO 08008G17KT 10SM -RA OVC009 07/05 A3001 RMK AO2 RAE01B11 SLP163 P0003 T00670050
KTTD 190912Z 1909/2006 09016G25KT 6SM RA BR SCT008 OVC015 
     TEMPO 1909/1912 3SM RA BR BKN008 OVC015 
     FM191200 22008KT P6SM -SHRA SCT015 BKN025 OVC040 
     FM191800 25006KT P6SM VCSH SCT025 BKN035 OVC050
       
KS39 190935Z AUTO 8SM -RA SCT034 BKN055 OVC120 06/04 A3005 RMK AO2
KRDM 190856Z AUTO 19008KT 7SM -RA FEW023 BKN055 OVC070 06/04 A3005 RMK AO2 SLP185 P0004 60018 T00610044 51013
KRDM 190537Z 1906/2006 18008KT 6SM -RA BR OVC040 
     FM191900 31007KT P6SM -RA OVC040
       
KRBG 190953Z AUTO 00000KT 3SM -RA BR OVC036 11/11 A3009 RMK AO2 SLP192 P0002 T01060106 $
KRBG 190856Z 1909/2006 00000KT P6SM BKN060 BKN070 OVC090 WS015/22030KT 
     FM191400 VRB02KT 2SM -RA BR OVC004 
     FM192000 25004KT P6SM -SHRA OVC035 
     FM200200 35002KT 4SM -RA BR OVC025
       
KSLE 190940Z 19014KT 10SM -RA BKN009 OVC026 12/11 A2998 RMK AO2 RAB03 P0000 T01220106
KSLE 190837Z 1909/2006 19015G25KT 6SM RA BR BKN012 OVC025 
     FM191200 19011KT 5SM -RA BR SCT007 BKN022 OVC035 
     FM191600 20008KT P6SM -SHRA SCT020 OVC040 
     FM192000 20007KT P6SM VCSH SCT020 BKN035 OVC060
       
KSPB 190953Z AUTO 22004KT 8SM OVC007 08/06 A2999 RMK AO2 RAE14 SLP154 P0001 T00780061
KDLS 190953Z AUTO 34005KT 4SM -RA BR FEW006 OVC014 04/03 A3005 RMK AO2 RAB0857 SLP179 P0001 T00390028
KDLS 190537Z 1906/2006 VRB05KT 3SM -RA BR OVC020 
     FM191500 30006KT 6SM BR OVC030 
     FM191800 31007KT P6SM OVC040
       
KTMK 190935Z AUTO 21009G18KT 7SM SCT014 BKN019 OVC038 13/11 A3001 RMK AO2